sensor_id;sensor_type;location;lat;lon;timestamp;P1;durP1;ratioP1;P2;durP2;ratioP2
75716;SDS011;64333;50.138;14.332;2024-03-23T00:55:26;12.82;;;8.77;;
75716;SDS011;64333;50.138;14.332;2024-03-23T00:57:52;14.67;;;9.97;;
75716;SDS011;64333;50.138;14.332;2024-03-23T01:00:17;15.47;;;9.40;;
75716;SDS011;64333;50.138;14.332;2024-03-23T01:02:42;13.25;;;9.48;;
75716;SDS011;64333;50.138;14.332;2024-03-23T01:05:08;16.17;;;9.30;;
75716;SDS011;64333;50.138;14.332;2024-03-23T01:07:33;14.38;;;9.52;;
75716;SDS011;64333;50.138;14.332;2024-03-23T01:09:58;15.43;;;9.90;;
75716;SDS011;64333;50.138;14.332;2024-03-23T01:12:23;13.87;;;9.67;;
75716;SDS011;64333;50.138;14.332;2024-03-23T01:14:49;14.10;;;9.40;;
75716;SDS011;64333;50.138;14.332;2024-03-23T01:17:14;14.43;;;10.77;;
75716;SDS011;64333;50.138;14.332;2024-03-23T01:19:39;15.70;;;10.65;;
75716;SDS011;64333;50.138;14.332;2024-03-23T01:22:06;16.00;;;10.18;;
75716;SDS011;64333;50.138;14.332;2024-03-23T01:24:31;16.13;;;10.10;;
75716;SDS011;64333;50.138;14.332;2024-03-23T01:26:56;15.87;;;9.23;;
75716;SDS011;64333;50.138;14.332;2024-03-23T01:29:22;13.73;;;9.63;;
75716;SDS011;64333;50.138;14.332;2024-03-23T01:31:47;14.73;;;10.00;;
75716;SDS011;64333;50.138;14.332;2024-03-23T01:34:12;14.67;;;10.03;;
75716;SDS011;64333;50.138;14.332;2024-03-23T01:36:37;13.60;;;9.50;;
75716;SDS011;64333;50.138;14.332;2024-03-23T01:39:02;15.13;;;10.07;;
75716;SDS011;64333;50.138;14.332;2024-03-23T01:41:28;14.67;;;9.20;;
75716;SDS011;64333;50.138;14.332;2024-03-23T01:43:54;13.70;;;9.73;;
75716;SDS011;64333;50.138;14.332;2024-03-23T01:46:20;14.80;;;9.48;;
75716;SDS011;64333;50.138;14.332;2024-03-23T01:48:45;15.68;;;10.40;;
75716;SDS011;64333;50.138;14.332;2024-03-23T01:51:10;13.68;;;9.63;;
75716;SDS011;64333;50.138;14.332;2024-03-23T01:53:36;13.20;;;9.20;;
75716;SDS011;64333;50.138;14.332;2024-03-23T01:56:01;15.77;;;10.23;;
75716;SDS011;64333;50.138;14.332;2024-03-23T01:58:27;13.35;;;9.35;;
75716;SDS011;64333;50.138;14.332;2024-03-23T02:00:52;12.48;;;8.93;;
75716;SDS011;64333;50.138;14.332;2024-03-23T02:03:24;12.93;;;8.47;;
75716;SDS011;64333;50.138;14.332;2024-03-23T02:05:50;12.50;;;7.80;;
75716;SDS011;64333;50.138;14.332;2024-03-23T02:08:16;13.50;;;8.93;;
75716;SDS011;64333;50.138;14.332;2024-03-23T02:10:42;12.10;;;8.07;;
75716;SDS011;64333;50.138;14.332;2024-03-23T02:13:08;13.52;;;8.85;;
75716;SDS011;64333;50.138;14.332;2024-03-23T02:15:33;14.13;;;8.57;;
75716;SDS011;64333;50.138;14.332;2024-03-23T02:17:59;14.30;;;9.52;;
75716;SDS011;64333;50.138;14.332;2024-03-23T02:20:24;13.23;;;9.13;;
75716;SDS011;64333;50.138;14.332;2024-03-23T02:22:53;15.77;;;9.67;;
75716;SDS011;64333;50.138;14.332;2024-03-23T02:25:18;12.65;;;8.93;;
75716;SDS011;64333;50.138;14.332;2024-03-23T02:27:43;13.17;;;9.07;;
75716;SDS011;64333;50.138;14.332;2024-03-23T02:30:09;12.57;;;9.10;;
75716;SDS011;64333;50.138;14.332;2024-03-23T02:32:34;14.23;;;8.90;;
75716;SDS011;64333;50.138;14.332;2024-03-23T02:34:59;14.33;;;9.77;;
75716;SDS011;64333;50.138;14.332;2024-03-23T02:37:24;15.57;;;9.53;;
75716;SDS011;64333;50.138;14.332;2024-03-23T02:39:50;14.53;;;9.43;;
75716;SDS011;64333;50.138;14.332;2024-03-23T02:42:15;12.63;;;9.07;;
75716;SDS011;64333;50.138;14.332;2024-03-23T02:44:42;12.88;;;9.38;;
75716;SDS011;64333;50.138;14.332;2024-03-23T02:47:08;12.95;;;9.48;;
75716;SDS011;64333;50.138;14.332;2024-03-23T02:49:33;14.33;;;8.97;;
75716;SDS011;64333;50.138;14.332;2024-03-23T02:51:58;13.60;;;9.13;;
75716;SDS011;64333;50.138;14.332;2024-03-23T02:54:23;14.67;;;9.33;;
75716;SDS011;64333;50.138;14.332;2024-03-23T02:56:48;12.63;;;9.53;;
75716;SDS011;64333;50.138;14.332;2024-03-23T02:59:14;15.37;;;9.57;;
75716;SDS011;64333;50.138;14.332;2024-03-23T03:01:39;12.90;;;8.73;;
75716;SDS011;64333;50.138;14.332;2024-03-23T03:04:04;15.00;;;10.03;;
75716;SDS011;64333;50.138;14.332;2024-03-23T03:06:30;15.48;;;9.65;;
75716;SDS011;64333;50.138;14.332;2024-03-23T03:08:55;15.45;;;9.80;;
75716;SDS011;64333;50.138;14.332;2024-03-23T03:11:20;16.10;;;9.87;;
75716;SDS011;64333;50.138;14.332;2024-03-23T03:13:46;14.07;;;9.27;;
75716;SDS011;64333;50.138;14.332;2024-03-23T03:16:11;14.00;;;9.20;;
75716;SDS011;64333;50.138;14.332;2024-03-23T03:18:37;17.05;;;9.60;;
75716;SDS011;64333;50.138;14.332;2024-03-23T03:21:02;12.18;;;9.65;;
75716;SDS011;64333;50.138;14.332;2024-03-23T03:23:28;15.32;;;8.70;;
75716;SDS011;64333;50.138;14.332;2024-03-23T03:25:53;14.55;;;9.38;;
75716;SDS011;64333;50.138;14.332;2024-03-23T03:28:19;14.23;;;9.23;;
75716;SDS011;64333;50.138;14.332;2024-03-23T03:30:44;12.52;;;8.93;;
75716;SDS011;64333;50.138;14.332;2024-03-23T03:33:10;15.60;;;9.85;;
75716;SDS011;64333;50.138;14.332;2024-03-23T03:35:35;16.13;;;9.50;;
75716;SDS011;64333;50.138;14.332;2024-03-23T03:38:00;16.25;;;10.43;;
75716;SDS011;64333;50.138;14.332;2024-03-23T03:40:25;15.10;;;10.07;;
75716;SDS011;64333;50.138;14.332;2024-03-23T03:42:51;13.20;;;9.03;;
75716;SDS011;64333;50.138;14.332;2024-03-23T03:45:16;14.83;;;8.73;;
75716;SDS011;64333;50.138;14.332;2024-03-23T03:47:41;15.00;;;9.77;;
75716;SDS011;64333;50.138;14.332;2024-03-23T03:50:06;16.57;;;10.33;;
75716;SDS011;64333;50.138;14.332;2024-03-23T03:52:32;17.23;;;10.45;;
75716;SDS011;64333;50.138;14.332;2024-03-23T03:55:01;14.87;;;9.67;;
75716;SDS011;64333;50.138;14.332;2024-03-23T03:57:27;19.38;;;10.27;;
75716;SDS011;64333;50.138;14.332;2024-03-23T03:59:52;14.77;;;9.37;;
75716;SDS011;64333;50.138;14.332;2024-03-23T04:02:17;16.00;;;9.47;;
75716;SDS011;64333;50.138;14.332;2024-03-23T04:04:43;14.50;;;9.80;;
75716;SDS011;64333;50.138;14.332;2024-03-23T04:07:08;16.37;;;10.70;;
75716;SDS011;64333;50.138;14.332;2024-03-23T04:09:33;15.70;;;10.20;;
75716;SDS011;64333;50.138;14.332;2024-03-23T04:11:59;14.77;;;9.50;;
75716;SDS011;64333;50.138;14.332;2024-03-23T04:14:24;13.57;;;9.30;;
75716;SDS011;64333;50.138;14.332;2024-03-23T04:16:49;15.80;;;10.13;;
75716;SDS011;64333;50.138;14.332;2024-03-23T04:19:18;14.47;;;9.17;;
75716;SDS011;64333;50.138;14.332;2024-03-23T04:21:43;11.68;;;8.40;;
75716;SDS011;64333;50.138;14.332;2024-03-23T04:24:08;14.30;;;10.30;;
75716;SDS011;64333;50.138;14.332;2024-03-23T04:26:40;14.57;;;9.40;;
75716;SDS011;64333;50.138;14.332;2024-03-23T04:29:06;13.52;;;9.25;;
75716;SDS011;64333;50.138;14.332;2024-03-23T04:31:31;13.68;;;9.13;;
75716;SDS011;64333;50.138;14.332;2024-03-23T04:33:58;13.43;;;9.68;;
75716;SDS011;64333;50.138;14.332;2024-03-23T04:36:23;13.67;;;8.93;;
75716;SDS011;64333;50.138;14.332;2024-03-23T04:38:48;14.43;;;8.43;;
75716;SDS011;64333;50.138;14.332;2024-03-23T04:41:15;12.80;;;9.43;;
75716;SDS011;64333;50.138;14.332;2024-03-23T04:43:40;15.50;;;9.90;;
75716;SDS011;64333;50.138;14.332;2024-03-23T04:46:05;13.40;;;9.43;;
75716;SDS011;64333;50.138;14.332;2024-03-23T04:48:31;14.70;;;9.27;;
75716;SDS011;64333;50.138;14.332;2024-03-23T04:50:57;16.17;;;11.07;;
75716;SDS011;64333;50.138;14.332;2024-03-23T04:53:23;15.00;;;9.45;;
75716;SDS011;64333;50.138;14.332;2024-03-23T04:55:52;14.90;;;9.95;;
75716;SDS011;64333;50.138;14.332;2024-03-23T04:58:18;15.63;;;10.25;;
75716;SDS011;64333;50.138;14.332;2024-03-23T05:00:43;15.90;;;10.10;;
75716;SDS011;64333;50.138;14.332;2024-03-23T05:03:08;13.47;;;9.97;;
75716;SDS011;64333;50.138;14.332;2024-03-23T05:05:34;15.50;;;9.43;;
75716;SDS011;64333;50.138;14.332;2024-03-23T05:07:59;15.30;;;9.13;;
75716;SDS011;64333;50.138;14.332;2024-03-23T05:10:24;14.85;;;9.43;;
75716;SDS011;64333;50.138;14.332;2024-03-23T05:12:50;13.20;;;8.77;;
75716;SDS011;64333;50.138;14.332;2024-03-23T05:15:15;12.40;;;8.93;;
75716;SDS011;64333;50.138;14.332;2024-03-23T05:17:40;13.43;;;8.93;;
75716;SDS011;64333;50.138;14.332;2024-03-23T05:20:06;11.90;;;8.73;;
75716;SDS011;64333;50.138;14.332;2024-03-23T05:22:35;13.15;;;8.93;;
75716;SDS011;64333;50.138;14.332;2024-03-23T05:25:00;14.02;;;9.07;;
75716;SDS011;64333;50.138;14.332;2024-03-23T05:27:25;13.63;;;9.60;;
75716;SDS011;64333;50.138;14.332;2024-03-23T05:29:51;18.77;;;11.60;;
75716;SDS011;64333;50.138;14.332;2024-03-23T05:32:16;15.63;;;9.70;;
75716;SDS011;64333;50.138;14.332;2024-03-23T05:34:41;13.70;;;9.40;;
75716;SDS011;64333;50.138;14.332;2024-03-23T05:37:06;13.43;;;9.03;;
75716;SDS011;64333;50.138;14.332;2024-03-23T05:39:32;14.38;;;9.32;;
75716;SDS011;64333;50.138;14.332;2024-03-23T05:41:57;12.00;;;8.63;;
75716;SDS011;64333;50.138;14.332;2024-03-23T05:44:22;14.10;;;9.17;;
75716;SDS011;64333;50.138;14.332;2024-03-23T05:46:47;16.67;;;10.37;;
75716;SDS011;64333;50.138;14.332;2024-03-23T05:49:13;13.85;;;8.95;;
75716;SDS011;64333;50.138;14.332;2024-03-23T05:51:39;13.18;;;9.07;;
75716;SDS011;64333;50.138;14.332;2024-03-23T05:54:04;12.33;;;8.47;;
75716;SDS011;64333;50.138;14.332;2024-03-23T05:56:29;18.67;;;10.07;;
75716;SDS011;64333;50.138;14.332;2024-03-23T05:58:55;16.30;;;10.03;;
75716;SDS011;64333;50.138;14.332;2024-03-23T06:01:20;13.30;;;9.23;;
75716;SDS011;64333;50.138;14.332;2024-03-23T06:03:45;11.80;;;8.53;;
75716;SDS011;64333;50.138;14.332;2024-03-23T06:06:11;14.48;;;8.90;;
75716;SDS011;64333;50.138;14.332;2024-03-23T06:08:37;11.63;;;9.00;;
75716;SDS011;64333;50.138;14.332;2024-03-23T06:11:02;12.55;;;8.88;;
75716;SDS011;64333;50.138;14.332;2024-03-23T06:13:27;12.07;;;7.80;;
75716;SDS011;64333;50.138;14.332;2024-03-23T06:15:55;12.40;;;9.50;;
75716;SDS011;64333;50.138;14.332;2024-03-23T06:18:21;11.68;;;7.82;;
75716;SDS011;64333;50.138;14.332;2024-03-23T06:20:46;9.93;;;7.47;;
75716;SDS011;64333;50.138;14.332;2024-03-23T06:23:11;12.35;;;8.00;;
75716;SDS011;64333;50.138;14.332;2024-03-23T06:25:37;11.70;;;8.05;;
75716;SDS011;64333;50.138;14.332;2024-03-23T06:28:03;11.32;;;7.60;;
75716;SDS011;64333;50.138;14.332;2024-03-23T06:30:29;10.18;;;8.05;;
75716;SDS011;64333;50.138;14.332;2024-03-23T06:32:55;10.73;;;7.70;;
75716;SDS011;64333;50.138;14.332;2024-03-23T06:35:20;11.60;;;8.15;;
75716;SDS011;64333;50.138;14.332;2024-03-23T06:37:45;10.93;;;7.93;;
75716;SDS011;64333;50.138;14.332;2024-03-23T06:40:10;11.75;;;7.53;;
75716;SDS011;64333;50.138;14.332;2024-03-23T06:42:36;9.32;;;7.35;;
75716;SDS011;64333;50.138;14.332;2024-03-23T06:45:02;11.23;;;7.43;;
75716;SDS011;64333;50.138;14.332;2024-03-23T06:47:28;11.50;;;7.50;;
75716;SDS011;64333;50.138;14.332;2024-03-23T06:49:53;10.18;;;7.13;;
75716;SDS011;64333;50.138;14.332;2024-03-23T06:52:19;12.83;;;7.70;;
75716;SDS011;64333;50.138;14.332;2024-03-23T06:54:44;11.43;;;7.63;;
75716;SDS011;64333;50.138;14.332;2024-03-23T06:57:10;10.23;;;6.90;;
75716;SDS011;64333;50.138;14.332;2024-03-23T06:59:37;8.52;;;6.57;;
75716;SDS011;64333;50.138;14.332;2024-03-23T07:02:02;10.00;;;7.05;;
75716;SDS011;64333;50.138;14.332;2024-03-23T07:04:27;8.07;;;5.80;;
75716;SDS011;64333;50.138;14.332;2024-03-23T07:06:52;9.73;;;6.80;;
75716;SDS011;64333;50.138;14.332;2024-03-23T07:09:18;8.23;;;5.72;;
75716;SDS011;64333;50.138;14.332;2024-03-23T07:11:44;8.90;;;6.57;;
75716;SDS011;64333;50.138;14.332;2024-03-23T07:14:10;9.40;;;5.80;;
75716;SDS011;64333;50.138;14.332;2024-03-23T07:16:37;9.50;;;6.07;;
75716;SDS011;64333;50.138;14.332;2024-03-23T07:19:02;9.63;;;6.17;;
75716;SDS011;64333;50.138;14.332;2024-03-23T07:21:27;9.07;;;5.63;;
75716;SDS011;64333;50.138;14.332;2024-03-23T07:23:52;7.63;;;5.30;;
75716;SDS011;64333;50.138;14.332;2024-03-23T07:26:18;8.40;;;6.00;;
75716;SDS011;64333;50.138;14.332;2024-03-23T07:28:44;10.30;;;7.57;;
75716;SDS011;64333;50.138;14.332;2024-03-23T07:31:11;8.13;;;5.70;;
75716;SDS011;64333;50.138;14.332;2024-03-23T07:33:37;9.18;;;5.65;;
75716;SDS011;64333;50.138;14.332;2024-03-23T07:36:03;8.05;;;5.78;;
75716;SDS011;64333;50.138;14.332;2024-03-23T07:38:31;8.45;;;5.97;;
75716;SDS011;64333;50.138;14.332;2024-03-23T07:41:10;9.30;;;6.10;;
75716;SDS011;64333;50.138;14.332;2024-03-23T07:43:35;8.70;;;6.32;;
75716;SDS011;64333;50.138;14.332;2024-03-23T07:46:01;7.20;;;5.88;;
75716;SDS011;64333;50.138;14.332;2024-03-23T07:48:27;7.28;;;6.40;;
75716;SDS011;64333;50.138;14.332;2024-03-23T07:50:57;7.75;;;5.63;;
75716;SDS011;64333;50.138;14.332;2024-03-23T07:53:22;7.88;;;6.15;;
75716;SDS011;64333;50.138;14.332;2024-03-23T07:55:57;9.17;;;6.10;;
75716;SDS011;64333;50.138;14.332;2024-03-23T07:58:23;10.25;;;5.57;;
75716;SDS011;64333;50.138;14.332;2024-03-23T08:00:48;8.67;;;6.00;;
75716;SDS011;64333;50.138;14.332;2024-03-23T08:03:13;6.07;;;5.47;;
75716;SDS011;64333;50.138;14.332;2024-03-23T08:05:38;7.43;;;5.63;;
75716;SDS011;64333;50.138;14.332;2024-03-23T08:08:04;7.70;;;6.00;;
75716;SDS011;64333;50.138;14.332;2024-03-23T08:10:29;7.50;;;6.35;;
75716;SDS011;64333;50.138;14.332;2024-03-23T08:12:54;6.87;;;5.30;;
75716;SDS011;64333;50.138;14.332;2024-03-23T08:15:19;5.90;;;4.80;;
75716;SDS011;64333;50.138;14.332;2024-03-23T08:17:45;5.30;;;4.43;;
75716;SDS011;64333;50.138;14.332;2024-03-23T08:20:10;7.53;;;4.97;;
75716;SDS011;64333;50.138;14.332;2024-03-23T08:22:35;6.38;;;5.32;;
75716;SDS011;64333;50.138;14.332;2024-03-23T08:25:01;7.13;;;4.73;;
75716;SDS011;64333;50.138;14.332;2024-03-23T08:27:26;5.10;;;4.27;;
75716;SDS011;64333;50.138;14.332;2024-03-23T08:29:51;7.03;;;4.10;;
75716;SDS011;64333;50.138;14.332;2024-03-23T08:32:16;4.82;;;4.05;;
75716;SDS011;64333;50.138;14.332;2024-03-23T08:34:42;6.03;;;4.05;;
75716;SDS011;64333;50.138;14.332;2024-03-23T08:37:07;6.70;;;3.30;;
75716;SDS011;64333;50.138;14.332;2024-03-23T08:39:32;6.40;;;4.10;;
75716;SDS011;64333;50.138;14.332;2024-03-23T08:41:58;4.37;;;3.33;;
75716;SDS011;64333;50.138;14.332;2024-03-23T08:44:23;14.27;;;8.10;;
75716;SDS011;64333;50.138;14.332;2024-03-23T08:46:48;5.37;;;4.07;;
75716;SDS011;64333;50.138;14.332;2024-03-23T08:49:13;7.60;;;4.20;;
75716;SDS011;64333;50.138;14.332;2024-03-23T08:51:39;5.50;;;3.60;;
75716;SDS011;64333;50.138;14.332;2024-03-23T08:54:04;5.03;;;3.60;;
75716;SDS011;64333;50.138;14.332;2024-03-23T08:56:29;6.70;;;3.97;;
75716;SDS011;64333;50.138;14.332;2024-03-23T08:58:55;4.90;;;3.73;;
75716;SDS011;64333;50.138;14.332;2024-03-23T09:01:20;6.50;;;3.40;;
75716;SDS011;64333;50.138;14.332;2024-03-23T09:03:45;8.50;;;4.37;;
75716;SDS011;64333;50.138;14.332;2024-03-23T09:06:12;5.88;;;4.32;;
75716;SDS011;64333;50.138;14.332;2024-03-23T09:08:38;6.25;;;4.10;;
75716;SDS011;64333;50.138;14.332;2024-03-23T09:11:04;5.45;;;4.00;;
75716;SDS011;64333;50.138;14.332;2024-03-23T09:13:31;6.57;;;4.47;;
75716;SDS011;64333;50.138;14.332;2024-03-23T09:15:56;7.65;;;4.20;;
75716;SDS011;64333;50.138;14.332;2024-03-23T09:18:22;6.70;;;4.70;;
75716;SDS011;64333;50.138;14.332;2024-03-23T09:20:47;7.22;;;5.32;;
75716;SDS011;64333;50.138;14.332;2024-03-23T09:23:12;6.57;;;4.40;;
75716;SDS011;64333;50.138;14.332;2024-03-23T09:25:38;6.67;;;5.13;;
75716;SDS011;64333;50.138;14.332;2024-03-23T09:28:04;8.07;;;6.20;;
75716;SDS011;64333;50.138;14.332;2024-03-23T09:30:30;9.65;;;5.85;;
75716;SDS011;64333;50.138;14.332;2024-03-23T09:32:55;7.53;;;5.90;;
75716;SDS011;64333;50.138;14.332;2024-03-23T09:35:20;10.77;;;7.30;;
75716;SDS011;64333;50.138;14.332;2024-03-23T09:37:45;9.20;;;7.27;;
75716;SDS011;64333;50.138;14.332;2024-03-23T09:40:11;9.07;;;8.07;;
75716;SDS011;64333;50.138;14.332;2024-03-23T09:42:36;7.40;;;6.20;;
75716;SDS011;64333;50.138;14.332;2024-03-23T09:45:02;11.43;;;7.25;;
75716;SDS011;64333;50.138;14.332;2024-03-23T09:47:27;7.90;;;5.47;;
75716;SDS011;64333;50.138;14.332;2024-03-23T09:49:53;7.13;;;5.47;;
75716;SDS011;64333;50.138;14.332;2024-03-23T09:52:19;6.30;;;4.22;;
75716;SDS011;64333;50.138;14.332;2024-03-23T09:54:44;5.47;;;4.50;;
75716;SDS011;64333;50.138;14.332;2024-03-23T09:57:10;4.68;;;3.17;;
75716;SDS011;64333;50.138;14.332;2024-03-23T09:59:35;6.17;;;3.90;;
75716;SDS011;64333;50.138;14.332;2024-03-23T10:02:03;3.88;;;3.53;;
75716;SDS011;64333;50.138;14.332;2024-03-23T10:04:38;5.70;;;4.20;;
75716;SDS011;64333;50.138;14.332;2024-03-23T10:07:10;7.97;;;4.18;;
75716;SDS011;64333;50.138;14.332;2024-03-23T10:09:35;6.00;;;4.50;;
75716;SDS011;64333;50.138;14.332;2024-03-23T10:12:08;8.47;;;6.30;;
75716;SDS011;64333;50.138;14.332;2024-03-23T10:14:33;8.70;;;5.28;;
75716;SDS011;64333;50.138;14.332;2024-03-23T10:17:11;7.13;;;5.27;;
75716;SDS011;64333;50.138;14.332;2024-03-23T10:19:36;6.10;;;4.07;;
75716;SDS011;64333;50.138;14.332;2024-03-23T10:22:01;6.83;;;3.93;;
75716;SDS011;64333;50.138;14.332;2024-03-23T10:24:26;8.97;;;5.97;;
75716;SDS011;64333;50.138;14.332;2024-03-23T10:26:55;5.90;;;3.97;;
75716;SDS011;64333;50.138;14.332;2024-03-23T10:29:21;6.03;;;4.55;;
75716;SDS011;64333;50.138;14.332;2024-03-23T10:31:46;4.80;;;3.80;;
75716;SDS011;64333;50.138;14.332;2024-03-23T10:34:12;6.57;;;4.10;;
75716;SDS011;64333;50.138;14.332;2024-03-23T10:36:37;7.17;;;4.67;;
75716;SDS011;64333;50.138;14.332;2024-03-23T10:39:03;5.47;;;3.50;;
75716;SDS011;64333;50.138;14.332;2024-03-23T10:41:30;6.68;;;4.13;;
75716;SDS011;64333;50.138;14.332;2024-03-23T10:43:56;5.47;;;3.53;;
75716;SDS011;64333;50.138;14.332;2024-03-23T10:46:22;9.13;;;4.22;;
75716;SDS011;64333;50.138;14.332;2024-03-23T10:48:48;6.53;;;4.00;;
75716;SDS011;64333;50.138;14.332;2024-03-23T10:51:13;5.13;;;3.88;;
75716;SDS011;64333;50.138;14.332;2024-03-23T10:53:39;6.18;;;4.28;;
75716;SDS011;64333;50.138;14.332;2024-03-23T10:56:05;5.35;;;3.67;;
75716;SDS011;64333;50.138;14.332;2024-03-23T10:58:37;5.15;;;3.67;;
75716;SDS011;64333;50.138;14.332;2024-03-23T11:01:03;5.13;;;3.80;;
75716;SDS011;64333;50.138;14.332;2024-03-23T11:05:56;4.85;;;3.50;;
75716;SDS011;64333;50.138;14.332;2024-03-23T11:08:29;4.45;;;3.30;;
75716;SDS011;64333;50.138;14.332;2024-03-23T11:10:56;3.58;;;2.75;;
75716;SDS011;64333;50.138;14.332;2024-03-23T11:13:36;4.13;;;3.05;;
75716;SDS011;64333;50.138;14.332;2024-03-23T11:18:39;4.05;;;2.88;;
75716;SDS011;64333;50.138;14.332;2024-03-23T11:21:06;3.88;;;2.92;;
75716;SDS011;64333;50.138;14.332;2024-03-23T11:23:31;3.72;;;2.97;;
75716;SDS011;64333;50.138;14.332;2024-03-23T11:25:56;4.10;;;2.53;;
75716;SDS011;64333;50.138;14.332;2024-03-23T11:28:22;4.07;;;2.63;;
75716;SDS011;64333;50.138;14.332;2024-03-23T11:30:47;2.13;;;1.57;;
75716;SDS011;64333;50.138;14.332;2024-03-23T11:33:13;3.17;;;1.95;;
75716;SDS011;64333;50.138;14.332;2024-03-23T11:35:39;4.47;;;2.50;;
75716;SDS011;64333;50.138;14.332;2024-03-23T11:38:09;4.82;;;2.90;;
75716;SDS011;64333;50.138;14.332;2024-03-23T11:40:38;3.70;;;2.50;;
75716;SDS011;64333;50.138;14.332;2024-03-23T11:43:04;3.83;;;2.28;;
75716;SDS011;64333;50.138;14.332;2024-03-23T11:45:39;3.90;;;2.35;;
75716;SDS011;64333;50.138;14.332;2024-03-23T11:48:06;3.10;;;1.85;;
75716;SDS011;64333;50.138;14.332;2024-03-23T11:50:31;1.98;;;1.55;;
75716;SDS011;64333;50.138;14.332;2024-03-23T11:53:06;2.50;;;1.53;;
75716;SDS011;64333;50.138;14.332;2024-03-23T11:55:38;5.78;;;1.55;;
75716;SDS011;64333;50.138;14.332;2024-03-23T11:58:03;2.88;;;1.35;;
75716;SDS011;64333;50.138;14.332;2024-03-23T12:00:29;1.70;;;1.10;;
75716;SDS011;64333;50.138;14.332;2024-03-23T12:02:59;1.02;;;0.60;;
75716;SDS011;64333;50.138;14.332;2024-03-23T12:05:25;0.82;;;0.63;;
75716;SDS011;64333;50.138;14.332;2024-03-23T12:07:51;1.33;;;0.50;;
75716;SDS011;64333;50.138;14.332;2024-03-23T12:10:16;2.00;;;0.50;;
75716;SDS011;64333;50.138;14.332;2024-03-23T12:12:44;0.82;;;0.60;;
75716;SDS011;64333;50.138;14.332;2024-03-23T12:15:09;0.83;;;0.40;;
75716;SDS011;64333;50.138;14.332;2024-03-23T12:17:34;1.02;;;0.50;;
75716;SDS011;64333;50.138;14.332;2024-03-23T12:20:00;0.43;;;0.30;;
75716;SDS011;64333;50.138;14.332;2024-03-23T12:22:26;0.75;;;0.40;;
75716;SDS011;64333;50.138;14.332;2024-03-23T12:24:51;0.50;;;0.40;;
75716;SDS011;64333;50.138;14.332;2024-03-23T12:27:16;0.50;;;0.40;;
75716;SDS011;64333;50.138;14.332;2024-03-23T12:29:42;0.50;;;0.40;;
75716;SDS011;64333;50.138;14.332;2024-03-23T12:32:11;1.05;;;0.60;;
75716;SDS011;64333;50.138;14.332;2024-03-23T12:34:36;0.45;;;0.40;;
75716;SDS011;64333;50.138;14.332;2024-03-23T12:37:01;1.13;;;0.40;;
75716;SDS011;64333;50.138;14.332;2024-03-23T12:39:27;0.82;;;0.40;;
75716;SDS011;64333;50.138;14.332;2024-03-23T12:41:53;0.95;;;0.20;;
75716;SDS011;64333;50.138;14.332;2024-03-23T12:44:22;0.60;;;0.50;;
75716;SDS011;64333;50.138;14.332;2024-03-23T12:46:47;0.63;;;0.47;;
75716;SDS011;64333;50.138;14.332;2024-03-23T12:49:12;0.30;;;0.30;;
75716;SDS011;64333;50.138;14.332;2024-03-23T12:51:38;0.57;;;0.22;;
75716;SDS011;64333;50.138;14.332;2024-03-23T12:54:03;1.20;;;1.10;;
75716;SDS011;64333;50.138;14.332;2024-03-23T12:56:29;0.40;;;0.30;;
75716;SDS011;64333;50.138;14.332;2024-03-23T12:58:55;1.10;;;0.38;;
75716;SDS011;64333;50.138;14.332;2024-03-23T13:01:22;0.50;;;0.40;;
75716;SDS011;64333;50.138;14.332;2024-03-23T13:03:47;0.38;;;0.30;;
75716;SDS011;64333;50.138;14.332;2024-03-23T13:06:13;0.40;;;0.25;;
75716;SDS011;64333;50.138;14.332;2024-03-23T13:08:38;0.82;;;0.40;;
75716;SDS011;64333;50.138;14.332;2024-03-23T13:11:05;0.50;;;0.20;;
75716;SDS011;64333;50.138;14.332;2024-03-23T13:13:31;0.30;;;0.20;;
75716;SDS011;64333;50.138;14.332;2024-03-23T13:15:58;0.30;;;0.20;;
75716;SDS011;64333;50.138;14.332;2024-03-23T13:18:23;0.90;;;0.40;;
75716;SDS011;64333;50.138;14.332;2024-03-23T13:20:48;0.47;;;0.30;;
75716;SDS011;64333;50.138;14.332;2024-03-23T13:23:14;0.30;;;0.20;;
75716;SDS011;64333;50.138;14.332;2024-03-23T13:25:39;0.65;;;0.30;;
75716;SDS011;64333;50.138;14.332;2024-03-23T13:28:04;1.70;;;1.17;;
75716;SDS011;64333;50.138;14.332;2024-03-23T13:30:30;1.02;;;0.57;;
75716;SDS011;64333;50.138;14.332;2024-03-23T13:32:55;0.57;;;0.30;;
75716;SDS011;64333;50.138;14.332;2024-03-23T13:35:20;0.25;;;0.20;;
75716;SDS011;64333;50.138;14.332;2024-03-23T13:37:46;0.40;;;0.10;;
75716;SDS011;64333;50.138;14.332;2024-03-23T13:40:11;0.90;;;0.52;;
75716;SDS011;64333;50.138;14.332;2024-03-23T13:42:37;0.57;;;0.40;;
75716;SDS011;64333;50.138;14.332;2024-03-23T13:45:03;1.10;;;0.30;;
75716;SDS011;64333;50.138;14.332;2024-03-23T13:47:28;0.80;;;0.40;;
75716;SDS011;64333;50.138;14.332;2024-03-23T13:49:53;0.20;;;0.20;;
75716;SDS011;64333;50.138;14.332;2024-03-23T13:52:18;0.20;;;0.10;;
75716;SDS011;64333;50.138;14.332;2024-03-23T13:54:47;1.20;;;0.30;;
75716;SDS011;64333;50.138;14.332;2024-03-23T13:57:13;0.50;;;0.23;;
75716;SDS011;64333;50.138;14.332;2024-03-23T13:59:38;0.50;;;0.32;;
75716;SDS011;64333;50.138;14.332;2024-03-23T14:02:03;0.30;;;0.20;;
75716;SDS011;64333;50.138;14.332;2024-03-23T14:04:29;1.17;;;0.30;;
75716;SDS011;64333;50.138;14.332;2024-03-23T14:06:54;0.50;;;0.50;;
75716;SDS011;64333;50.138;14.332;2024-03-23T14:09:19;0.63;;;0.47;;
75716;SDS011;64333;50.138;14.332;2024-03-23T14:11:50;0.60;;;0.50;;
75716;SDS011;64333;50.138;14.332;2024-03-23T14:14:16;0.80;;;0.35;;
75716;SDS011;64333;50.138;14.332;2024-03-23T14:16:42;0.55;;;0.43;;
75716;SDS011;64333;50.138;14.332;2024-03-23T14:19:07;1.70;;;0.40;;
75716;SDS011;64333;50.138;14.332;2024-03-23T14:21:32;1.30;;;0.87;;
75716;SDS011;64333;50.138;14.332;2024-03-23T14:23:59;1.13;;;0.55;;
75716;SDS011;64333;50.138;14.332;2024-03-23T14:26:25;1.17;;;0.43;;
75716;SDS011;64333;50.138;14.332;2024-03-23T14:28:51;0.40;;;0.40;;
75716;SDS011;64333;50.138;14.332;2024-03-23T14:31:16;1.13;;;0.30;;
75716;SDS011;64333;50.138;14.332;2024-03-23T14:33:41;0.40;;;0.40;;
75716;SDS011;64333;50.138;14.332;2024-03-23T14:36:11;0.88;;;0.60;;
75716;SDS011;64333;50.138;14.332;2024-03-23T14:38:36;0.63;;;0.43;;
75716;SDS011;64333;50.138;14.332;2024-03-23T14:41:01;0.77;;;0.50;;
75716;SDS011;64333;50.138;14.332;2024-03-23T14:43:28;0.80;;;0.60;;
75716;SDS011;64333;50.138;14.332;2024-03-23T14:48:31;1.30;;;0.63;;
75716;SDS011;64333;50.138;14.332;2024-03-23T14:50:57;2.38;;;1.00;;
75716;SDS011;64333;50.138;14.332;2024-03-23T14:53:22;1.57;;;0.80;;
75716;SDS011;64333;50.138;14.332;2024-03-23T14:55:48;1.40;;;0.60;;
75716;SDS011;64333;50.138;14.332;2024-03-23T14:58:14;2.13;;;0.80;;
75716;SDS011;64333;50.138;14.332;2024-03-23T15:00:39;1.10;;;0.70;;
75716;SDS011;64333;50.138;14.332;2024-03-23T15:03:05;2.73;;;0.60;;
75716;SDS011;64333;50.138;14.332;2024-03-23T15:05:30;3.03;;;0.70;;
75716;SDS011;64333;50.138;14.332;2024-03-23T15:07:55;1.43;;;0.90;;
75716;SDS011;64333;50.138;14.332;2024-03-23T15:10:20;1.60;;;0.60;;
75716;SDS011;64333;50.138;14.332;2024-03-23T15:12:46;1.42;;;0.65;;
75716;SDS011;64333;50.138;14.332;2024-03-23T15:15:11;1.00;;;0.70;;
75716;SDS011;64333;50.138;14.332;2024-03-23T15:17:37;1.05;;;0.80;;
75716;SDS011;64333;50.138;14.332;2024-03-23T15:20:06;1.88;;;1.02;;
75716;SDS011;64333;50.138;14.332;2024-03-23T15:22:31;3.72;;;1.15;;